Latest Weather Observations for Clermont Airport

IDQ60801

Issued at 4:35 pm EST Wednesday 22 October 2014 (issued every 30 minutes, with the page automatically refreshed every 10 minutes)

About weather observations | Map of weather stations | Latest weather observations for QLD | Other Formats
Station Details ID: 035124 Name: CLERMONT AIRPORT Lat: -22.78 Lon: 147.62 Height: 270.27 m
Data from the previous 72 hours. | See also: Recent months at Clermont Airport
Date/Time
EST
Temp
°C
App
Temp
°C
Dew
Point
Rel
Hum
%
Delta-T
°C
Wind Press
QNH
hPa
Press
MSL
hPa
Rain
since 9 am
mm
Dir
 
Spd
km/h
Gust
km/h
Spd
kts
Gust
kts
22/04:30pm 29.4 25.4 6.7 24 12.2 SE 17 28 9 15 1018.2 1016.8 0.0
22/04:00pm 30.1 26.9 8.5 26 12.0 ESE 15 30 8 16 1018.2 1016.8 0.0
22/03:30pm 30.1 26.6 10.1 29 11.5 SSE 19 32 10 17 1018.2 1016.8 0.0
22/03:00pm 29.0 26.6 10.2 31 10.7 E 13 28 7 15 1018.4 1017.0 0.0
22/02:30pm 29.4 27.0 10.0 30 11.1 SE 13 24 7 13 1018.7 1017.3 0.0
22/02:00pm 29.4 27.0 11.5 33 10.4 SE 15 26 8 14 1019.3 1017.9 0.0
22/01:30pm 28.9 28.2 11.9 35 10.0 SE 7 20 4 11 1019.7 1018.3 0.0
22/01:00pm 27.4 25.1 10.6 35 9.6 ESE 13 26 7 14 1020.2 1018.9 0.0
22/12:30pm 28.5 27.3 11.6 35 9.8 E 9 17 5 9 1020.8 1019.5 0.0
22/12:00pm 26.9 24.5 11.4 38 8.9 SE 15 26 8 14 1021.3 1020.0 0.0
22/11:30am 27.3 25.9 12.1 39 8.9 E 11 24 6 13 1022.0 1020.6 0.0
22/11:00am 26.7 25.6 13.1 43 8.0 E 11 20 6 11 1022.5 1021.1 0.0
22/10:30am 25.7 24.3 12.2 43 7.8 ENE 11 24 6 13 1023.0 1021.6 0.0
22/10:00am 25.4 23.4 12.6 45 7.5 E 15 32 8 17 1023.4 1022.1 0.0
22/09:30am 24.4 23.3 13.0 49 6.7 E 11 28 6 15 1023.6 1022.3 0.0
22/09:00am 23.6 21.7 12.9 51 6.2 ENE 15 30 8 16 1023.7 1022.4 0.0
22/08:30am 22.0 21.5 12.8 56 5.3 E 7 17 4 9 1024.0 1022.7 0.0
22/08:00am 20.6 20.1 12.6 60 4.6 E 7 13 4 7 1024.0 1022.7 0.0
22/07:30am 19.5 18.9 12.3 63 4.1 ESE 7 13 4 7 1023.8 1022.5 0.0
22/07:00am 18.3 17.6 11.4 64 3.8 SSE 6 9 3 5 1023.7 1022.4 0.0
22/06:30am 16.5 15.4 10.6 68 3.2 S 7 11 4 6 1023.6 1022.3 0.0
22/06:00am 14.5 13.1 9.7 73 2.5 S 7 7 4 4 1023.3 1022.0 0.0
22/05:30am 12.6 11.1 8.3 75 2.2 S 6 7 3 4 1022.9 1021.5 0.0
22/05:00am 13.1 11.6 8.6 74 2.3 S 6 7 3 4 1022.6 1021.2 0.0
22/04:30am 12.9 11.5 8.8 76 2.1 S 6 7 3 4 1022.4 1021.0 0.0
22/04:00am 12.8 12.3 9.3 79 1.8 SSE 2 6 1 3 1022.4 1021.0 0.0
22/03:30am 14.0 13.9 9.4 74 2.4 CALM 0 0 0 0 1022.3 1020.9 0.0
22/03:00am 14.5 14.3 9.1 70 2.8 CALM 0 0 0 0 1022.3 1020.9 0.0
22/02:30am 15.8 15.8 9.7 67 3.2 CALM 0 2 0 1 1022.3 1020.9 0.0
22/02:00am 16.4 16.2 10.3 67 3.3 E 2 4 1 2 1022.4 1021.0 0.0
22/01:30am 16.4 16.2 10.5 68 3.2 E 2 4 1 2 1022.8 1021.4 0.0
22/01:00am 17.6 17.5 10.7 64 3.7 E 2 4 1 2 1023.1 1021.7 0.0
22/12:30am 18.3 18.2 10.7 61 4.1 E 2 6 1 3 1023.3 1022.0 0.0
22/12:00am 17.8 17.9 10.2 61 4.1 CALM 0 7 0 4 1023.5 1022.2 0.0
 
Date/Time
EST
Temp
°C
App
Temp
°C
Dew
Point
Rel
Hum
%
Delta-T
°C
Wind Press
QNH
hPa
Press
MSL
hPa
Rain
since 9 am
mm
Dir
 
Spd
km/h
Gust
km/h
Spd
kts
Gust
kts
21/11:30pm 19.1 18.9 10.6 58 4.6 ENE 2 4 1 2 1023.7 1022.4 0.0
21/11:00pm 20.0 19.2 11.2 57 4.9 ENE 6 7 3 4 1023.7 1022.4 0.0
21/10:30pm 20.3 19.9 11.0 55 5.1 ENE 4 7 2 4 1023.8 1022.5 0.0
21/10:00pm 21.3 20.3 11.1 52 5.7 ENE 7 13 4 7 1023.6 1022.3 0.0
21/09:30pm 22.1 20.8 11.2 50 6.1 NE 9 13 5 7 1023.3 1022.0 0.0
21/09:00pm 22.6 21.5 10.7 47 6.6 NE 7 15 4 8 1023.0 1021.6 0.0
21/08:30pm 23.6 20.9 7.3 35 8.6 ENE 11 17 6 9 1022.7 1021.3 0.0
21/08:00pm 24.3 21.1 5.1 29 9.8 ENE 11 19 6 10 1022.3 1020.9 0.0
21/07:30pm 24.1 21.6 4.5 28 9.9 E 7 13 4 7 1022.0 1020.6 0.0
21/07:00pm 25.3 22.8 5.0 27 10.4 E 7 13 4 7 1021.3 1020.0 0.0
21/06:30pm 26.3 23.9 5.3 26 10.9 E 7 15 4 8 1020.9 1019.6 0.0
21/06:00pm 27.5 24.1 5.7 25 11.4 E 13 22 7 12 1020.5 1019.2 0.0
21/05:30pm 28.2 24.8 5.7 24 11.9 E 13 26 7 14 1020.1 1018.8 0.0
21/05:00pm 28.7 24.6 6.1 24 12.0 E 17 28 9 15 1019.8 1018.4 0.0
21/04:30pm 29.3 26.1 6.7 24 12.2 ENE 13 28 7 15 1019.5 1018.1 0.0
21/04:00pm 29.7 26.7 7.6 25 12.1 ESE 13 30 7 16 1019.4 1018.0 0.0
21/03:30pm 29.4 25.9 7.3 25 12.1 E 15 26 8 14 1019.6 1018.2 0.0
21/03:00pm 29.5 26.0 7.4 25 12.1 E 15 32 8 17 1019.7 1018.3 0.0
21/02:30pm 29.4 26.1 7.9 26 11.8 E 15 26 8 14 1019.9 1018.6 0.0
21/02:00pm 28.2 25.3 8.0 28 11.0 SE 13 24 7 13 1020.5 1019.2 0.0
21/01:30pm 28.2 24.3 8.5 29 10.9 ESE 19 35 10 19 1020.9 1019.6 0.0
21/01:00pm 27.6 23.9 9.4 32 10.2 SE 19 32 10 17 1021.5 1020.2 0.0
21/12:30pm 27.1 23.5 9.9 34 9.7 SE 19 37 10 20 1022.3 1020.9 0.0
21/12:00pm 26.4 23.9 9.7 35 9.3 E 13 26 7 14 1022.9 1021.5 0.0
21/11:30am 25.4 22.4 10.8 40 8.3 ESE 17 26 9 14 1023.5 1022.2 0.0
21/11:00am 24.4 22.2 10.7 42 7.7 ESE 13 24 7 13 1024.0 1022.7 0.0
21/10:30am 24.0 21.9 11.3 45 7.2 ENE 13 24 7 13 1024.4 1023.1 0.0
21/10:00am 23.1 20.7 11.5 48 6.6 ENE 15 28 8 15 1024.6 1023.3 0.0
21/09:30am 22.9 20.5 12.5 52 6.0 E 17 33 9 18 1024.8 1023.5 0.0
21/09:00am 21.6 19.1 12.2 55 5.3 ESE 17 28 9 15 1024.9 1023.6 0.0
21/08:30am 21.0 18.9 12.4 58 4.9 E 15 26 8 14 1024.9 1023.6 0.0
21/08:00am 19.9 18.3 12.7 63 4.1 ESE 13 26 7 14 1024.8 1023.5 0.0
21/07:30am 18.9 17.1 12.2 65 3.8 ESE 13 24 7 13 1024.6 1023.3 0.0
21/07:00am 17.6 15.7 11.9 69 3.2 SE 13 19 7 10 1024.1 1022.8 0.0
21/06:30am 16.2 15.1 11.8 75 2.4 SE 9 15 5 8 1023.7 1022.4 0.0
21/06:00am 15.4 14.4 12.2 81 1.8 SE 9 15 5 8 1023.4 1022.1 0.0
21/05:30am 15.5 14.8 12.1 80 1.9 SSE 7 15 4 8 1023.0 1021.6 0.0
21/05:00am 15.5 15.0 12.1 80 1.9 SSE 6 7 3 4 1022.7 1021.3 0.0
21/04:30am 15.7 15.4 12.6 82 1.7 SSE 6 9 3 5 1022.3 1020.9 0.0
21/04:00am 14.6 14.1 10.8 78 2.0 SSE 4 7 2 4 1022.0 1020.6 0.0
21/03:30am 16.1 16.1 12.5 79 2.0 E 4 6 2 3 1021.7 1020.4 0.0
21/03:00am 16.7 17.2 12.7 77 2.2 ESE 2 6 1 3 1021.7 1020.4 0.0
21/02:30am 16.9 17.5 12.0 73 2.7 CALM 0 0 0 0 1021.8 1020.5 0.0
21/02:00am 17.2 16.7 11.9 71 2.9 ENE 6 9 3 5 1021.7 1020.4 0.0
21/01:30am 16.3 15.8 10.6 69 3.1 ESE 4 7 2 4 1021.7 1020.4 0.0
21/01:00am 17.6 17.9 10.9 65 3.6 CALM 0 0 0 0 1022.1 1020.7 0.0
21/12:30am 18.5 17.7 11.1 62 4.1 NE 6 11 3 6 1022.1 1020.7 0.0
21/12:00am 18.9 18.1 11.0 60 4.3 NE 6 11 3 6 1022.3 1020.9 0.0
 
Date/Time
EST
Temp
°C
App
Temp
°C
Dew
Point
Rel
Hum
%
Delta-T
°C
Wind Press
QNH
hPa
Press
MSL
hPa
Rain
since 9 am
mm
Dir
 
Spd
km/h
Gust
km/h
Spd
kts
Gust
kts
20/11:30pm 19.4 18.3 10.7 57 4.8 NNE 7 11 4 6 1022.4 1021.0 0.0
20/11:00pm 20.3 18.9 11.0 55 5.1 NNE 9 17 5 9 1022.4 1021.0 0.0
20/10:30pm 20.4 19.1 11.1 55 5.2 NNE 9 15 5 8 1022.3 1020.9 0.0
20/10:00pm 19.5 17.7 7.3 45 6.3 N 6 7 3 4 1022.4 1021.0 0.0
20/09:30pm 20.7 18.7 6.3 39 7.3 N 6 9 3 5 1022.2 1020.8 0.0
20/09:00pm 21.6 19.1 4.7 33 8.4 NE 7 11 4 6 1021.7 1020.4 0.0
20/08:30pm 20.7 19.4 3.9 33 8.2 CALM 0 0 0 0 1021.2 1019.9 0.0
20/08:00pm 22.6 21.2 3.7 29 9.3 CALM 0 0 0 0 1020.8 1019.5 0.0
20/07:30pm 24.2 22.1 4.0 27 10.1 E 4 7 2 4 1020.3 1019.0 0.0
20/07:00pm 25.6 23.0 4.1 25 10.8 SE 7 15 4 8 1019.9 1018.6 0.0
20/06:30pm 26.7 23.7 3.9 23 11.5 SE 9 15 5 8 1019.6 1018.2 0.0
20/06:00pm 27.7 23.9 4.1 22 12.0 SE 13 20 7 11 1019.3 1017.9 0.0
20/05:30pm 28.5 25.1 4.1 21 12.5 ESE 11 22 6 12 1019.0 1017.6 0.0
20/05:00pm 29.2 25.4 4.0 20 13.0 ESE 13 26 7 14 1018.7 1017.3 0.0
20/04:30pm 29.6 25.7 3.6 19 13.3 ESE 13 24 7 13 1018.5 1017.1 0.0
20/04:00pm 29.4 24.7 3.4 19 13.3 ESE 17 35 9 19 1018.6 1017.2 0.0
20/03:30pm 29.6 24.8 2.8 18 13.6 ESE 17 30 9 16 1018.6 1017.2 0.0
20/03:00pm 29.6 24.8 2.8 18 13.5 ESE 17 28 9 15 1018.7 1017.3 0.0
20/02:30pm 29.9 25.3 3.8 19 13.5 ESE 17 32 9 17 1019.0 1017.6 0.0
20/02:00pm 29.2 23.9 3.2 19 13.2 ESE 20 39 11 21 1019.5 1018.1 0.0
20/01:30pm 29.2 24.1 3.2 19 13.2 ESE 19 35 10 19 1020.1 1018.8 0.0
20/01:00pm 28.8 24.2 3.6 20 12.8 ESE 17 28 9 15 1020.6 1019.3 0.0
20/12:30pm 28.3 23.5 4.6 22 12.3 ESE 19 28 10 15 1021.3 1020.0 0.0
20/12:00pm 27.9 23.5 6.6 26 11.4 ESE 19 41 10 22 1022.0 1020.6 0.0
20/11:30am 26.6 22.3 7.1 29 10.4 ESE 19 32 10 17 1022.6 1021.2 0.0
20/11:00am 26.6 23.4 8.6 32 9.9 E 15 33 8 18 1023.0 1021.6 0.0
20/10:30am 25.5 23.1 10.1 38 8.6 ESE 13 24 7 13 1023.6 1022.3 0.0
20/10:00am 24.4 21.9 9.6 39 8.1 E 13 22 7 12 1024.0 1022.7 0.0
20/09:30am 23.3 21.0 10.4 44 7.2 ESE 13 20 7 11 1024.4 1023.1 0.0
20/09:00am 22.9 20.5 10.0 44 7.1 E 13 24 7 13 1024.6 1023.3 0.0
20/08:30am 21.2 18.6 10.7 51 5.8 ESE 15 26 8 14 1024.6 1023.3 0.0
20/08:00am 20.1 18.0 11.1 56 5.0 ESE 13 22 7 12 1024.7 1023.4 0.0
20/07:30am 18.3 17.0 11.1 63 4.0 ESE 9 17 5 9 1024.8 1023.5 0.0
20/07:00am 16.9 15.6 11.4 70 3.0 SE 9 17 5 9 1024.6 1023.3 0.0
20/06:30am 15.3 15.8 11.5 78 2.1 CALM 0 2 0 1 1024.4 1023.1 0.0
20/06:00am 12.6 12.8 10.7 88 1.0 CALM 0 4 0 2 1024.1 1022.8 0.0
20/05:30am 11.3 10.9 9.7 90 0.8 E 2 4 1 2 1023.8 1022.5 0.0
20/05:00am 11.9 11.1 9.5 85 1.2 SSE 4 6 2 3 1023.7 1022.4 0.0
20/04:30am 12.5 11.8 10.2 86 1.2 SSW 4 6 2 3 1023.5 1022.2 0.0
20/04:00am 13.3 12.8 10.7 84 1.4 S 4 6 2 3 1023.4 1022.1 0.0
20/03:30am 13.1 12.4 10.1 82 1.6 S 4 4 2 2 1023.1 1021.7 0.0
20/03:00am 13.9 14.1 10.7 81 1.7 CALM 0 0 0 0 1023.1 1021.7 0.0
20/02:30am 15.1 15.5 11.3 78 2.1 CALM 0 0 0 0 1023.0 1021.6 0.0
20/02:00am 15.3 15.7 11.1 76 2.3 CALM 0 2 0 1 1023.0 1021.6 0.0
20/01:30am 16.7 16.8 11.6 72 2.8 E 2 6 1 3 1023.0 1021.6 0.0
20/01:00am 17.5 17.4 12.0 70 3.0 ENE 4 7 2 4 1023.2 1021.9 0.0
20/12:30am 17.9 17.9 12.4 70 3.1 NE 4 9 2 5 1023.2 1021.9 0.0
20/12:00am 18.2 17.5 12.0 67 3.4 NE 7 11 4 6 1023.3 1022.0 0.0
 
Date/Time
EST
Temp
°C
App
Temp
°C
Dew
Point
Rel
Hum
%
Delta-T
°C
Wind Press
QNH
hPa
Press
MSL
hPa
Rain
since 9 am
mm
Dir
 
Spd
km/h
Gust
km/h
Spd
kts
Gust
kts
19/11:30pm 18.5 17.9 11.8 65 3.7 NNE 6 9 3 5 1023.5 1022.2 0.0
19/11:00pm 19.5 18.4 11.8 61 4.3 NNE 9 13 5 7 1023.7 1022.4 0.0
19/10:30pm 19.6 18.3 11.4 59 4.6 NNE 9 17 5 9 1023.7 1022.4 0.0
19/10:00pm 20.9 18.9 11.5 55 5.3 NNE 13 20 7 11 1023.6 1022.3 0.0
19/09:30pm 21.4 20.5 11.4 53 5.6 NNE 7 19 4 10 1023.4 1022.1 0.0
19/09:00pm 21.9 20.5 11.0 50 6.1 NE 9 15 5 8 1023.1 1021.7 0.0
19/08:30pm 21.9 20.2 9.8 46 6.6 NE 9 13 5 7 1022.5 1021.1 0.0
19/08:00pm 21.6 20.6 7.4 40 7.4 E 2 4 1 2 1022.1 1020.7 0.0
19/07:30pm 22.8 21.8 7.4 37 8.1 ESE 2 7 1 4 1021.6 1020.3 0.0
19/07:00pm 23.6 22.1 6.8 34 8.8 E 4 7 2 4 1021.3 1020.0 0.0
19/06:30pm 25.1 23.1 7.3 32 9.5 E 7 11 4 6 1021.0 1019.7 0.0
19/06:00pm 26.1 23.9 7.7 31 9.9 ESE 9 19 5 10 1020.6 1019.3 0.0
19/05:30pm 26.9 23.9 7.9 30 10.3 ESE 13 22 7 12 1020.4 1019.1 0.0
19/05:00pm 27.3 24.4 8.2 30 10.4 E 13 26 7 14 1020.1 1018.8 0.0

Other Formats:

Comma delimited format used in spreadsheet applications
http://www.bom.gov.au/fwo/IDQ60801/IDQ60801.94395.axf

JavaScript Object Notation format (JSON) in row-major order
http://www.bom.gov.au/fwo/IDQ60801/IDQ60801.94395.json